createdAt,value
2018-10-05T00:05:06.349Z,51.23
2018-10-05T00:07:36.060Z,51.20
2018-10-05T00:10:05.659Z,51.33
2018-10-05T00:12:35.659Z,52.13
2018-10-05T00:15:05.374Z,51.85
2018-10-05T00:17:34.915Z,51.98
2018-10-05T00:20:04.635Z,52.26
2018-10-05T00:22:34.089Z,51.70
2018-10-05T00:25:03.768Z,51.75
2018-10-05T00:27:33.442Z,51.94
2018-10-05T00:30:03.264Z,52.15
2018-10-05T00:32:32.834Z,52.47
2018-10-05T00:35:02.943Z,52.29
2018-10-05T00:37:32.515Z,52.77
2018-10-05T00:57:25.430Z,52.18
2018-10-05T00:59:54.994Z,52.47
2018-10-05T01:02:24.507Z,52.21
2018-10-05T01:04:54.460Z,52.37
2018-10-05T01:07:24.395Z,52.67
2018-10-05T01:09:54.006Z,52.73
2018-10-05T01:12:24.023Z,52.78
2018-10-05T01:14:53.907Z,52.85
2018-10-05T01:17:23.580Z,53.02
2018-10-05T01:37:14.882Z,53.34
2018-10-05T01:57:08.144Z,54.21
2018-10-05T01:59:37.880Z,54.17
2018-10-05T02:02:07.423Z,54.15
2018-10-05T02:04:37.176Z,54.19
2018-10-05T02:07:07.232Z,54.44
2018-10-05T02:09:36.945Z,54.23
2018-10-05T02:12:06.656Z,54.49
2018-10-05T02:31:58.966Z,55.37
2018-10-05T02:34:28.349Z,55.24
2018-10-05T02:36:57.890Z,55.62
2018-10-05T02:39:27.879Z,55.95
2018-10-05T02:41:57.539Z,56.29
2018-10-05T02:44:27.137Z,56.34
2018-10-05T02:46:57.337Z,56.12
2018-10-05T02:49:26.951Z,56.54
2018-10-05T02:51:56.906Z,56.09
2018-10-05T02:54:26.588Z,56.48
2018-10-05T02:56:56.143Z,56.76
2018-10-05T02:59:25.798Z,56.62
2018-10-05T03:02:06.597Z,57.05
2018-10-05T03:21:57.798Z,56.79
2018-10-05T03:24:27.563Z,57.12
2018-10-05T03:26:57.180Z,56.74
2018-10-05T03:29:26.687Z,56.98
2018-10-05T03:31:56.797Z,57.05
2018-10-05T03:34:26.523Z,57.59
2018-10-05T03:36:56.178Z,57.71
2018-10-05T03:39:26.361Z,57.57
2018-10-05T03:59:17.630Z,57.98
2018-10-05T04:01:47.399Z,57.80
2018-10-05T04:04:16.887Z,57.79
2018-10-05T04:06:46.382Z,57.89
2018-10-05T04:09:16.261Z,59.96
2018-10-05T04:11:45.804Z,60.65
2018-10-05T04:14:15.521Z,61.23
2018-10-05T04:16:45.590Z,60.39
2018-10-05T04:19:15.236Z,60.86
2018-10-05T04:21:44.999Z,60.46
2018-10-05T04:24:14.673Z,59.12
2018-10-05T04:26:44.399Z,58.87
2018-10-05T04:29:14.060Z,58.68
2018-10-05T04:31:43.712Z,58.78
2018-10-05T04:34:13.388Z,58.40
2018-10-05T04:36:42.908Z,58.72
2018-10-05T04:56:34.283Z,58.47
2018-10-05T04:59:04.122Z,58.46
2018-10-05T05:01:33.485Z,58.52
2018-10-05T05:04:03.496Z,58.46
2018-10-05T05:06:33.321Z,57.83
2018-10-05T05:32:12.741Z,57.14
2018-10-05T05:34:42.355Z,57.39
2018-10-05T05:37:12.184Z,57.59
2018-10-05T05:57:04.773Z,56.76
2018-10-05T05:59:34.405Z,56.55
2018-10-05T06:19:27.733Z,55.14
2018-10-05T06:21:57.630Z,55.05
2018-10-05T06:24:27.476Z,55.07
2018-10-05T06:26:57.390Z,54.18
2018-10-05T06:29:27.179Z,53.83
2018-10-05T06:31:56.985Z,53.79
2018-10-05T06:34:27.047Z,53.48
2018-10-05T06:36:56.789Z,52.79
2018-10-05T06:39:26.635Z,52.38
2018-10-05T06:41:56.495Z,52.28
2018-10-05T06:44:26.391Z,52.00
2018-10-05T06:46:56.304Z,51.84
2018-10-05T07:06:48.881Z,51.11
2018-10-05T07:26:40.404Z,47.95
2018-10-05T07:29:10.278Z,48.01
2018-10-05T07:49:01.757Z,45.71
2018-10-05T07:51:31.494Z,45.38
2018-10-05T07:54:01.174Z,45.65
2018-10-05T07:56:30.999Z,45.38
2018-10-05T07:59:01.059Z,45.55
2018-10-05T08:01:30.745Z,45.40
2018-10-05T08:04:00.666Z,44.38
2018-10-05T08:06:30.749Z,44.30
2018-10-05T08:09:00.547Z,43.95
2018-10-05T08:11:30.353Z,43.07
2018-10-05T08:14:00.145Z,42.58
2018-10-05T08:16:29.992Z,41.98
2018-10-05T08:36:22.338Z,40.44
2018-10-05T08:38:52.241Z,40.50
2018-10-05T08:41:22.101Z,40.14
2018-10-05T08:43:52.271Z,39.34
2018-10-05T08:46:22.137Z,38.63
2018-10-05T08:48:51.886Z,39.23
2018-10-05T08:51:22.184Z,37.99
2018-10-05T08:53:51.921Z,37.10
2018-10-05T08:56:21.742Z,37.74
2018-10-05T08:58:52.014Z,36.79
2018-10-05T09:01:21.817Z,36.65
2018-10-05T09:03:51.584Z,36.42
2018-10-05T09:06:21.522Z,36.03
2018-10-05T09:08:51.357Z,34.94
2018-10-05T09:11:21.238Z,35.57
2018-10-05T09:13:51.442Z,35.72
2018-10-05T09:16:21.215Z,35.87
2018-10-05T09:18:50.978Z,35.33
2018-10-05T09:21:21.156Z,34.17
2018-10-05T09:23:50.906Z,33.53
2018-10-05T09:26:20.863Z,33.28
2018-10-05T09:28:50.870Z,33.31
2018-10-05T09:31:20.605Z,32.15
2018-10-05T09:33:50.324Z,32.79
2018-10-05T09:36:20.246Z,32.20
2018-10-05T09:38:49.952Z,32.05
2018-10-05T09:41:19.838Z,31.92
2018-10-05T09:43:49.867Z,31.36
2018-10-05T09:46:19.640Z,30.62
2018-10-05T09:48:49.397Z,30.99
2018-10-05T09:51:19.128Z,30.86
2018-10-05T09:53:48.914Z,30.03
2018-10-05T09:56:18.593Z,30.11
2018-10-05T09:58:48.684Z,29.61
2018-10-05T10:01:23.712Z,30.00
2018-10-05T10:21:15.446Z,29.09
2018-10-05T10:23:45.198Z,28.77
2018-10-05T10:26:14.959Z,28.77
2018-10-05T10:28:45.325Z,28.71
2018-10-05T10:31:14.974Z,28.96
2018-10-05T10:33:44.824Z,28.51
2018-10-05T10:36:15.049Z,28.40
2018-10-05T10:38:44.905Z,28.74
2018-10-05T10:58:36.836Z,27.19
2018-10-05T11:01:06.808Z,27.00
2018-10-05T11:03:36.525Z,27.86
2018-10-05T11:06:06.288Z,27.45
2018-10-05T11:08:36.246Z,27.27
2018-10-05T11:11:06.202Z,26.44
2018-10-05T11:13:36.182Z,26.16
2018-10-05T11:33:28.070Z,25.44
2018-10-05T11:35:57.952Z,25.64
2018-10-05T11:55:50.051Z,24.71
2018-10-05T11:58:19.722Z,24.32
2018-10-05T12:00:49.527Z,23.76
2018-10-05T12:03:19.823Z,23.99
2018-10-05T12:05:49.561Z,23.91
2018-10-05T12:08:19.327Z,22.96
2018-10-05T12:10:49.418Z,23.46
2018-10-05T12:13:19.296Z,22.81
2018-10-05T12:15:49.130Z,23.38
2018-10-05T12:35:40.601Z,23.19
2018-10-05T12:38:10.282Z,23.12
2018-10-05T12:40:40.079Z,22.63
2018-10-05T12:43:10.401Z,22.63
2018-10-05T12:45:40.335Z,22.07
2018-10-05T12:48:10.121Z,22.12
2018-10-05T12:50:40.140Z,21.63
2018-10-05T12:53:10.088Z,21.77
2018-10-05T12:55:39.893Z,21.78
2018-10-05T12:58:09.999Z,22.18
2018-10-05T13:32:48.367Z,19.16
2018-10-05T13:52:39.983Z,17.92
2018-10-05T14:12:31.622Z,19.16
2018-10-05T14:15:01.570Z,19.37
2018-10-05T14:34:53.800Z,21.22
2018-10-05T14:37:23.564Z,21.25
2018-10-05T14:39:53.471Z,21.56
2018-10-05T14:42:23.261Z,21.89
2018-10-05T14:44:53.153Z,22.42
2018-10-05T14:47:22.816Z,22.19
2018-10-05T14:49:52.822Z,22.98
2018-10-05T14:52:25.423Z,22.95
2018-10-05T14:54:56.510Z,24.31
2018-10-05T14:57:26.325Z,24.42
2018-10-05T15:17:19.010Z,27.76
2018-10-05T15:19:48.738Z,28.28
2018-10-05T15:22:18.509Z,28.72
2018-10-05T15:24:48.327Z,28.94
2018-10-05T15:27:18.881Z,28.98
2018-10-05T15:29:49.739Z,29.33
2018-10-05T15:32:19.440Z,29.43
2018-10-05T15:34:49.175Z,30.06
2018-10-05T15:37:19.069Z,29.56
2018-10-05T15:39:48.773Z,29.83
2018-10-05T15:42:18.489Z,29.75
2018-10-05T15:44:48.913Z,29.90
2018-10-05T15:47:18.481Z,30.31
2018-10-05T15:49:48.229Z,30.42
2018-10-05T15:52:18.151Z,30.92
2018-10-05T15:54:48.107Z,30.99
2018-10-05T15:57:18.064Z,31.29
2018-10-05T15:59:48.050Z,31.87
2018-10-05T16:19:39.680Z,33.22
2018-10-05T16:22:09.471Z,33.40
2018-10-05T16:24:40.363Z,33.56
2018-10-05T16:27:10.960Z,33.98
2018-10-05T16:29:40.818Z,34.27
2018-10-05T16:32:11.285Z,34.14
2018-10-05T16:34:41.314Z,33.98
2018-10-05T16:37:11.189Z,34.08
2018-10-05T16:57:03.021Z,35.41
2018-10-05T16:59:32.753Z,35.67
2018-10-05T17:02:02.745Z,36.46
2018-10-05T17:04:32.560Z,36.03
2018-10-05T17:07:02.805Z,36.43
2018-10-05T17:09:32.882Z,36.45
2018-10-05T17:12:02.850Z,36.52
2018-10-05T17:14:32.551Z,36.56
2018-10-05T17:34:24.955Z,37.38
2018-10-05T17:36:54.791Z,37.31
2018-10-05T17:39:24.646Z,37.30
2018-10-05T17:41:54.424Z,37.50
2018-10-05T17:44:24.157Z,37.32
2018-10-05T17:46:53.974Z,37.48
2018-10-05T18:06:45.679Z,38.83
2018-10-05T18:09:15.419Z,38.24
2018-10-05T18:11:45.600Z,38.35
2018-10-05T18:14:17.893Z,38.43
2018-10-05T18:34:09.899Z,38.90
2018-10-05T18:54:00.631Z,40.22
2018-10-05T18:56:41.379Z,40.45
2018-10-05T18:59:11.669Z,40.48
2018-10-05T19:01:41.575Z,40.10
2018-10-05T19:04:11.463Z,40.12
2018-10-05T19:06:41.590Z,40.89
2018-10-05T19:09:11.375Z,40.24
2018-10-05T19:11:41.370Z,40.83
2018-10-05T19:14:11.432Z,41.73
2018-10-05T19:16:41.222Z,41.50
2018-10-05T19:36:33.525Z,42.43
2018-10-05T19:39:03.467Z,42.51
2018-10-05T19:41:33.026Z,42.54
2018-10-05T19:44:03.333Z,42.77
2018-10-05T20:03:55.571Z,43.65
2018-10-05T20:06:25.729Z,43.25
2018-10-05T20:08:55.677Z,43.69
2018-10-05T20:11:25.622Z,44.04
2018-10-05T20:31:17.154Z,44.15
2018-10-05T20:33:46.876Z,44.25
2018-10-05T20:36:16.555Z,44.22
2018-10-05T20:38:46.444Z,44.63
2018-10-05T20:41:16.001Z,44.29
2018-10-05T20:43:45.474Z,44.41
2018-10-05T20:46:15.423Z,43.72
2018-10-05T20:48:45.195Z,44.19
2018-10-05T20:51:15.099Z,44.26
2018-10-05T20:53:44.885Z,44.08
2018-10-05T20:56:14.691Z,44.29
2018-10-05T20:58:44.584Z,43.98
2018-10-05T21:01:14.485Z,43.81
2018-10-05T21:03:44.310Z,44.17
2018-10-05T21:06:14.233Z,44.78
2018-10-05T21:08:44.494Z,44.53
2018-10-05T21:11:14.075Z,44.49
2018-10-05T21:13:43.819Z,44.76
2018-10-05T21:16:13.860Z,44.28
2018-10-05T21:18:43.717Z,44.91
2018-10-05T21:21:13.639Z,45.29
2018-10-05T21:23:43.535Z,44.80
2018-10-05T21:26:13.453Z,44.66
2018-10-05T21:28:43.273Z,44.59
2018-10-05T21:31:13.271Z,44.71
2018-10-05T21:33:43.178Z,44.97
2018-10-05T21:36:12.935Z,44.70
2018-10-05T21:38:43.102Z,44.83
2018-10-05T21:41:12.879Z,45.02
2018-10-05T21:43:42.957Z,45.20
2018-10-05T21:46:13.040Z,44.77
2018-10-05T21:48:42.871Z,45.36
2018-10-05T21:51:12.721Z,44.93
2018-10-05T21:53:43.888Z,44.61
2018-10-05T21:56:13.506Z,44.76
2018-10-05T21:58:43.289Z,44.84
2018-10-05T22:01:13.194Z,45.14
2018-10-05T22:03:47.270Z,44.84
2018-10-05T22:06:18.758Z,44.64
2018-10-05T22:08:48.565Z,45.18
2018-10-05T22:11:18.485Z,44.88
2018-10-05T22:13:48.400Z,45.04
2018-10-05T22:16:18.261Z,44.87
2018-10-05T22:18:48.010Z,45.78
2018-10-05T22:21:18.102Z,45.31
2018-10-05T22:23:47.614Z,45.26
2018-10-05T22:26:17.452Z,46.03
2018-10-05T22:28:47.527Z,46.29
2018-10-05T22:31:17.043Z,45.95
2018-10-05T22:33:46.725Z,46.96
2018-10-05T22:36:16.970Z,46.18
2018-10-05T22:38:46.562Z,46.24
2018-10-05T22:41:16.140Z,46.60
2018-10-05T22:43:46.098Z,46.76
2018-10-05T22:46:15.814Z,46.37
2018-10-05T22:48:45.480Z,46.62
2018-10-05T22:51:15.498Z,46.54
2018-10-05T22:53:45.179Z,46.71
2018-10-05T22:56:15.033Z,46.25
2018-10-05T22:58:44.980Z,47.13
2018-10-05T23:01:14.682Z,46.99
2018-10-05T23:03:44.506Z,46.94
2018-10-05T23:06:14.182Z,47.37
2018-10-05T23:08:44.087Z,47.43
2018-10-05T23:11:14.906Z,47.66
2018-10-05T23:13:44.837Z,48.08
2018-10-05T23:16:16.108Z,48.06
2018-10-05T23:18:45.710Z,47.78
2018-10-05T23:21:15.405Z,48.07
2018-10-05T23:23:45.434Z,48.10
2018-10-05T23:26:15.229Z,48.13
2018-10-05T23:28:45.229Z,48.66
2018-10-05T23:31:15.558Z,48.38
2018-10-05T23:33:45.589Z,48.69
2018-10-05T23:36:15.496Z,48.64
2018-10-05T23:38:45.416Z,48.42
2018-10-05T23:41:15.230Z,48.29
2018-10-05T23:43:45.168Z,48.22
2018-10-05T23:46:15.237Z,48.47
2018-10-05T23:48:44.995Z,48.36
2018-10-05T23:51:15.013Z,48.28
2018-10-05T23:53:46.113Z,48.71
2018-10-05T23:56:15.795Z,49.25
2018-10-05T23:58:45.378Z,48.92
